createdAt,value
2019-02-23T00:02:24.615Z,86.30
2019-02-23T00:04:53.293Z,89.53
2019-02-23T00:07:22.012Z,86.27
2019-02-23T00:09:51.408Z,81.13
2019-02-23T00:12:19.994Z,91.63
2019-02-23T00:14:48.635Z,83.77
2019-02-23T00:17:17.280Z,96.00
2019-02-23T00:19:45.788Z,76.00
2019-02-23T00:22:14.390Z,84.13
2019-02-23T00:24:43.022Z,94.43
2019-02-23T00:27:11.666Z,79.07
2019-02-23T00:29:40.358Z,104.40
2019-02-23T00:32:09.004Z,113.97
2019-02-23T00:34:37.565Z,106.87
2019-02-23T00:37:06.248Z,118.77
2019-02-23T00:39:34.816Z,110.67
2019-02-23T00:42:03.648Z,109.33
2019-02-23T00:44:32.318Z,108.07
2019-02-23T00:47:00.893Z,122.23
2019-02-23T00:49:36.324Z,123.00
2019-02-23T00:51:59.886Z,90.17
2019-02-23T00:54:28.454Z,77.07
2019-02-23T00:56:57.083Z,83.33
2019-02-23T00:59:25.788Z,82.13
2019-02-23T01:01:54.407Z,76.00
2019-02-23T01:04:23.049Z,79.67
2019-02-23T01:06:51.716Z,75.30
2019-02-23T01:09:20.684Z,56.63
2019-02-23T01:11:50.305Z,63.93
2019-02-23T01:14:18.924Z,61.83
2019-02-23T01:16:47.588Z,58.87
2019-02-23T01:19:16.210Z,59.90
2019-02-23T01:21:44.904Z,56.60
2019-02-23T01:24:13.541Z,61.57
2019-02-23T01:26:42.181Z,45.33
2019-02-23T01:29:10.863Z,45.43
2019-02-23T01:31:39.494Z,43.83
2019-02-23T01:34:08.125Z,44.40
2019-02-23T01:36:37.188Z,44.27
2019-02-23T01:39:06.235Z,155.73
2019-02-23T01:41:34.807Z,101.93
2019-02-23T01:44:03.487Z,132.23
2019-02-23T01:46:32.114Z,158.83
2019-02-23T01:49:00.757Z,165.60
2019-02-23T01:51:29.389Z,150.70
2019-02-23T01:53:58.019Z,153.97
2019-02-23T01:56:26.661Z,169.67
2019-02-23T01:58:55.343Z,161.70
2019-02-23T02:01:23.979Z,193.73
2019-02-23T02:03:52.621Z,169.73
2019-02-23T02:06:21.303Z,181.37
2019-02-23T02:08:49.966Z,154.07
2019-02-23T02:11:18.790Z,167.07
2019-02-23T02:13:48.242Z,183.30
2019-02-23T02:16:16.891Z,203.13
2019-02-23T02:18:45.454Z,163.13
2019-02-23T02:21:14.135Z,141.43
2019-02-23T02:23:42.721Z,168.33
2019-02-23T02:26:11.279Z,179.33
2019-02-23T02:28:40.053Z,168.53
2019-02-23T02:31:08.661Z,168.23
2019-02-23T02:33:40.416Z,176.57
2019-02-23T02:36:09.106Z,186.83
2019-02-23T02:38:37.670Z,168.10
2019-02-23T02:41:06.240Z,179.57
2019-02-23T02:43:34.861Z,188.27
2019-02-23T02:46:03.534Z,181.60
2019-02-23T02:48:32.106Z,182.10
2019-02-23T02:51:00.794Z,188.27
2019-02-23T02:53:29.772Z,187.77
2019-02-23T02:55:58.337Z,202.57
2019-02-23T02:58:26.949Z,218.03
2019-02-23T03:00:55.589Z,190.73
2019-02-23T03:03:24.167Z,178.17
2019-02-23T03:05:52.729Z,166.07
2019-02-23T03:08:21.224Z,164.97
2019-02-23T03:10:51.402Z,172.93
2019-02-23T03:13:20.077Z,171.67
2019-02-23T03:15:48.639Z,160.63
2019-02-23T03:18:17.542Z,162.67
2019-02-23T03:20:46.151Z,160.37
2019-02-23T03:23:14.999Z,160.37
2019-02-23T03:25:43.566Z,171.50
2019-02-23T03:28:12.164Z,163.33
2019-02-23T03:30:40.750Z,155.10
2019-02-23T03:33:09.321Z,166.50
2019-02-23T03:35:38.009Z,159.20
2019-02-23T03:38:07.379Z,162.17
2019-02-23T03:40:35.862Z,165.30
2019-02-23T03:43:04.474Z,171.87
2019-02-23T03:45:33.035Z,170.40
2019-02-23T03:48:01.549Z,159.70
2019-02-23T03:50:30.188Z,196.67
2019-02-23T03:52:58.741Z,163.47
2019-02-23T03:55:27.386Z,179.53
2019-02-23T03:57:55.934Z,162.77
2019-02-23T04:00:24.507Z,164.80
2019-02-23T04:02:53.325Z,167.60
2019-02-23T04:05:21.880Z,168.17
2019-02-23T04:07:50.440Z,168.30
2019-02-23T04:10:19.003Z,168.13
2019-02-23T04:12:48.816Z,168.13
2019-02-23T04:15:17.455Z,180.83
2019-02-23T04:17:45.947Z,167.53
2019-02-23T04:20:14.661Z,171.73
2019-02-23T04:22:43.234Z,170.63
2019-02-23T04:25:11.853Z,168.20
2019-02-23T04:27:42.124Z,267.25
2019-02-23T04:30:10.768Z,232.65
2019-02-23T04:32:39.353Z,201.43
2019-02-23T04:35:07.969Z,212.43
2019-02-23T04:37:36.150Z,204.10
2019-02-23T04:40:04.621Z,214.57
2019-02-23T04:42:33.156Z,200.73
2019-02-23T04:45:01.740Z,196.17
2019-02-23T04:47:30.323Z,196.53
2019-02-23T04:49:58.872Z,199.77
2019-02-23T04:52:27.369Z,190.33
2019-02-23T04:54:55.939Z,189.63
2019-02-23T04:57:24.249Z,355.23
2019-02-23T04:59:52.512Z,173.03
2019-02-23T05:02:21.445Z,185.27
2019-02-23T05:04:50.061Z,146.27
2019-02-23T05:07:18.627Z,132.63
2019-02-23T05:09:46.906Z,291.30
2019-02-23T05:12:15.465Z,189.50
2019-02-23T05:14:44.859Z,206.23
2019-02-23T05:17:13.433Z,209.83
2019-02-23T05:19:42.130Z,207.13
2019-02-23T05:22:10.773Z,221.73
2019-02-23T05:24:39.349Z,215.47
2019-02-23T05:27:07.912Z,307.50
2019-02-23T05:29:36.187Z,243.07
2019-02-23T05:32:04.525Z,424.62
2019-02-23T05:34:33.219Z,267.35
2019-02-23T05:37:01.882Z,142.00
2019-02-23T05:39:30.446Z,126.13
2019-02-23T05:41:59.049Z,251.90
2019-02-23T05:44:27.636Z,207.87
2019-02-23T05:46:56.204Z,238.27
2019-02-23T05:49:24.813Z,234.97
2019-02-23T05:51:52.999Z,153.40
2019-02-23T05:54:21.257Z,169.45
2019-02-23T05:56:49.893Z,163.40
2019-02-23T05:59:18.213Z,242.27
2019-02-23T06:01:46.866Z,314.67
2019-02-23T06:04:15.564Z,188.70
2019-02-23T06:06:44.384Z,188.07
2019-02-23T06:09:12.665Z,510.25
2019-02-23T06:11:41.269Z,178.43
2019-02-23T06:14:09.845Z,181.47
2019-02-23T06:16:39.179Z,303.90
2019-02-23T06:19:07.720Z,292.92
2019-02-23T06:21:36.076Z,179.82
2019-02-23T06:24:04.391Z,134.32
2019-02-23T06:26:32.709Z,186.95
2019-02-23T06:29:01.428Z,178.68
2019-02-23T06:31:30.040Z,149.27
2019-02-23T06:34:15.612Z,155.17
2019-02-23T06:36:35.566Z,185.93
2019-02-23T06:39:04.940Z,183.30
2019-02-23T06:41:33.509Z,169.57
2019-02-23T06:44:02.014Z,168.23
2019-02-23T06:46:31.091Z,163.85
2019-02-23T06:48:59.729Z,191.17
2019-02-23T06:51:28.370Z,169.10
2019-02-23T06:53:57.481Z,184.03
2019-02-23T06:56:26.058Z,159.57
2019-02-23T06:58:54.394Z,167.80
2019-02-23T07:01:23.012Z,157.37
2019-02-23T07:03:51.273Z,154.57
2019-02-23T07:06:19.907Z,161.93
2019-02-23T07:08:48.596Z,157.30
2019-02-23T07:11:17.601Z,174.27
2019-02-23T07:13:46.176Z,153.70
2019-02-23T07:16:14.858Z,170.30
2019-02-23T07:18:44.370Z,154.90
2019-02-23T07:21:12.639Z,151.00
2019-02-23T07:23:41.334Z,155.23
2019-02-23T07:26:09.920Z,166.37
2019-02-23T07:28:38.488Z,157.23
2019-02-23T07:31:07.033Z,153.87
2019-02-23T07:33:35.599Z,152.80
2019-02-23T07:36:04.099Z,164.07
2019-02-23T07:38:32.697Z,190.60
2019-02-23T07:41:01.202Z,155.50
2019-02-23T07:43:29.861Z,187.50
2019-02-23T07:45:58.566Z,166.20
2019-02-23T07:51:56.251Z,158.00
2019-02-23T07:54:24.820Z,174.57
2019-02-23T07:56:53.321Z,160.43
2019-02-23T07:59:21.942Z,159.20
2019-02-23T08:01:50.517Z,157.97
2019-02-23T08:04:19.745Z,166.03
2019-02-23T08:06:48.367Z,183.27
2019-02-23T08:09:16.933Z,175.83
2019-02-23T08:11:45.504Z,156.90
2019-02-23T08:14:14.044Z,180.10
2019-02-23T08:16:42.601Z,171.50
2019-02-23T08:19:12.424Z,169.57
2019-02-23T08:21:41.414Z,176.70
2019-02-23T08:24:09.997Z,188.43
2019-02-23T08:26:38.561Z,167.00
2019-02-23T08:29:07.178Z,163.03
2019-02-23T08:31:35.678Z,160.97
2019-02-23T08:34:04.390Z,172.33
2019-02-23T08:36:33.312Z,167.50
2019-02-23T08:39:01.943Z,168.73
2019-02-23T08:41:30.584Z,153.00
2019-02-23T08:43:59.282Z,142.53
2019-02-23T08:46:27.910Z,145.80
2019-02-23T08:48:56.489Z,163.50
2019-02-23T08:51:25.158Z,161.63
2019-02-23T08:53:53.805Z,143.60
2019-02-23T08:56:22.377Z,159.77
2019-02-23T08:58:51.053Z,130.63
2019-02-23T09:01:19.695Z,130.13
2019-02-23T09:03:49.706Z,137.20
2019-02-23T09:06:18.223Z,147.87
2019-02-23T09:08:47.075Z,142.63
2019-02-23T09:11:15.784Z,169.33
2019-02-23T09:13:44.400Z,163.03
2019-02-23T09:16:14.622Z,166.10
2019-02-23T09:18:43.176Z,173.37
2019-02-23T09:21:11.778Z,181.67
2019-02-23T09:23:40.340Z,34.57
2019-02-23T09:26:08.831Z,35.40
2019-02-23T09:28:37.372Z,38.43
2019-02-23T09:31:05.956Z,171.37
2019-02-23T09:33:34.527Z,118.60
2019-02-23T09:36:03.796Z,99.27
2019-02-23T09:38:32.358Z,200.50
2019-02-23T09:41:00.857Z,173.07
2019-02-23T09:43:29.143Z,176.03
2019-02-23T09:45:57.403Z,176.43
2019-02-23T09:48:25.667Z,174.17
2019-02-23T09:50:54.278Z,159.13
2019-02-23T09:53:22.780Z,167.27
2019-02-23T09:55:51.361Z,176.83
2019-02-23T09:58:19.744Z,166.13
2019-02-23T10:00:48.314Z,165.00
2019-02-23T10:03:16.962Z,171.97
2019-02-23T10:05:45.583Z,166.27
2019-02-23T10:08:13.839Z,178.30
2019-02-23T10:10:42.496Z,162.33
2019-02-23T10:13:11.116Z,196.87
2019-02-23T10:15:39.366Z,162.90
2019-02-23T10:18:08.023Z,158.77
2019-02-23T10:20:36.353Z,164.50
2019-02-23T10:23:04.611Z,169.80
2019-02-23T10:25:33.234Z,170.37
2019-02-23T10:28:01.801Z,182.17
2019-02-23T10:30:30.362Z,175.57
2019-02-23T10:32:58.937Z,175.97
2019-02-23T10:35:27.306Z,178.10
2019-02-23T10:37:55.955Z,172.87
2019-02-23T10:40:24.601Z,162.20
2019-02-23T10:42:53.211Z,158.00
2019-02-23T10:45:21.857Z,159.93
2019-02-23T10:47:50.515Z,166.40
2019-02-23T10:50:19.171Z,159.13
2019-02-23T10:52:47.836Z,154.97
2019-02-23T10:55:16.470Z,148.47
2019-02-23T10:57:45.080Z,142.90
2019-02-23T11:00:17.566Z,146.40
2019-02-23T11:02:46.268Z,143.63
2019-02-23T11:05:15.211Z,141.70
2019-02-23T11:07:43.783Z,136.67
2019-02-23T11:10:12.433Z,154.00
2019-02-23T11:12:41.121Z,140.70
2019-02-23T11:15:12.119Z,142.87
2019-02-23T11:17:40.374Z,144.07
2019-02-23T11:20:09.880Z,141.13
2019-02-23T11:22:38.454Z,157.23
2019-02-23T11:25:10.610Z,154.97
2019-02-23T11:27:39.314Z,141.27
2019-02-23T11:30:09.591Z,158.23
2019-02-23T11:32:37.990Z,152.07
2019-02-23T11:35:08.322Z,136.33
2019-02-23T11:37:36.983Z,149.40
2019-02-23T11:40:08.319Z,146.30
2019-02-23T11:42:37.003Z,155.80
2019-02-23T11:45:05.581Z,146.27
2019-02-23T11:47:34.160Z,147.10
2019-02-23T11:50:02.454Z,147.77
2019-02-23T11:52:30.800Z,144.20
2019-02-23T11:54:59.354Z,151.00
2019-02-23T11:57:27.894Z,147.37
2019-02-23T11:59:56.487Z,155.03
2019-02-23T12:02:25.067Z,156.70
2019-02-23T12:04:53.666Z,150.30
2019-02-23T12:07:22.014Z,147.50
2019-02-23T12:09:50.512Z,152.90
2019-02-23T12:12:19.129Z,145.70
2019-02-23T12:14:47.496Z,141.57
2019-02-23T12:17:16.080Z,155.77
2019-02-23T12:19:44.694Z,140.47
2019-02-23T12:22:13.035Z,158.97
2019-02-23T12:24:42.457Z,141.60
2019-02-23T12:27:10.832Z,158.00
2019-02-23T12:29:39.412Z,155.73
2019-02-23T12:32:07.921Z,159.27
2019-02-23T12:34:36.535Z,151.67
2019-02-23T12:37:04.803Z,164.33
2019-02-23T12:39:33.056Z,169.57
2019-02-23T12:42:01.362Z,164.17
2019-02-23T12:44:29.687Z,167.23
2019-02-23T12:46:58.354Z,157.57
2019-02-23T12:49:26.660Z,176.07
2019-02-23T12:51:55.650Z,154.27
2019-02-23T12:54:24.148Z,150.33
2019-02-23T12:56:52.759Z,151.50
2019-02-23T12:59:21.089Z,162.97
2019-02-23T13:01:49.738Z,175.90
2019-02-23T13:04:18.039Z,160.37
2019-02-23T13:06:46.301Z,163.93
2019-02-23T13:09:15.439Z,167.70
2019-02-23T13:11:47.552Z,161.70
2019-02-23T13:14:33.980Z,170.53
2019-02-23T13:17:03.903Z,163.30
2019-02-23T13:19:33.795Z,162.00
2019-02-23T13:22:03.613Z,159.10
2019-02-23T13:24:41.462Z,162.83
2019-02-23T13:27:41.465Z,160.87
2019-02-23T13:30:18.883Z,162.13
2019-02-23T13:33:03.812Z,152.53
2019-02-23T13:35:53.825Z,158.60
2019-02-23T13:38:46.560Z,166.13
2019-02-23T13:41:22.329Z,162.17
2019-02-23T13:44:10.331Z,170.73
2019-02-23T13:46:47.946Z,157.70
2019-02-23T13:49:31.641Z,167.30
2019-02-23T13:52:06.167Z,176.47
2019-02-23T13:54:51.388Z,166.97
2019-02-23T13:57:38.214Z,159.90
2019-02-23T14:00:10.053Z,171.03
2019-02-23T14:02:56.666Z,174.47
2019-02-23T14:05:48.094Z,161.97
2019-02-23T14:08:38.182Z,166.00
2019-02-23T14:11:21.903Z,159.30
2019-02-23T14:14:06.870Z,159.00
2019-02-23T14:16:39.488Z,178.00
2019-02-23T14:19:20.169Z,176.73
2019-02-23T14:22:21.991Z,167.67
2019-02-23T14:25:02.347Z,173.70
2019-02-23T14:27:38.211Z,169.00
2019-02-23T14:30:18.939Z,177.77
2019-02-23T14:32:56.454Z,165.93
2019-02-23T14:35:26.322Z,164.03
2019-02-23T14:38:02.190Z,160.67
2019-02-23T14:40:37.790Z,167.10
2019-02-23T14:43:12.192Z,168.63
2019-02-23T14:46:07.881Z,173.43
2019-02-23T14:49:05.594Z,161.37
2019-02-23T14:52:06.137Z,164.20
2019-02-23T14:54:46.739Z,162.20
2019-02-23T14:57:51.774Z,166.73
2019-02-23T15:00:28.994Z,162.40
2019-02-23T15:03:18.896Z,162.57
2019-02-23T15:05:48.779Z,175.73
2019-02-23T15:08:18.631Z,172.20
2019-02-23T15:10:54.552Z,168.90
2019-02-23T15:13:24.445Z,162.40
2019-02-23T15:16:17.448Z,166.77
2019-02-23T15:18:53.627Z,180.83
2019-02-23T15:21:52.517Z,179.80
2019-02-23T15:24:52.704Z,183.03
2019-02-23T15:27:26.979Z,164.97
2019-02-23T15:30:04.234Z,162.33
2019-02-23T15:32:50.603Z,167.40
2019-02-23T15:35:25.038Z,163.73
2019-02-23T15:38:02.460Z,167.07
2019-02-23T15:40:46.005Z,161.87
2019-02-23T15:43:33.836Z,166.10
2019-02-23T15:46:20.748Z,170.97
2019-02-23T15:49:24.198Z,164.90
2019-02-23T15:51:52.780Z,165.00
2019-02-23T15:54:21.399Z,166.00
2019-02-23T15:56:50.014Z,166.23
2019-02-23T15:59:19.032Z,156.87
2019-02-23T16:01:47.290Z,167.57
2019-02-23T16:04:15.848Z,162.83
2019-02-23T16:06:44.172Z,167.43
2019-02-23T16:09:12.601Z,167.13
2019-02-23T16:11:41.199Z,161.50
2019-02-23T16:14:09.767Z,178.23
2019-02-23T16:16:38.406Z,163.27
2019-02-23T16:19:06.936Z,175.07
2019-02-23T16:21:35.523Z,165.00
2019-02-23T16:24:04.020Z,164.90
2019-02-23T16:26:32.395Z,165.57
2019-02-23T16:29:00.665Z,166.23
2019-02-23T16:31:29.007Z,159.80
2019-02-23T16:33:59.125Z,168.00
2019-02-23T16:36:27.693Z,161.47
2019-02-23T16:38:56.354Z,162.30
2019-02-23T16:41:24.958Z,160.27
2019-02-23T16:43:53.599Z,159.27
2019-02-23T16:46:22.245Z,166.37
2019-02-23T16:48:50.557Z,165.73
2019-02-23T16:51:18.899Z,162.97
2019-02-23T16:53:49.077Z,157.70
2019-02-23T16:56:17.405Z,156.97
2019-02-23T16:58:46.465Z,153.07
2019-02-23T17:01:15.021Z,147.83
2019-02-23T17:03:43.708Z,152.30
2019-02-23T17:06:12.213Z,158.10
2019-02-23T17:08:40.771Z,154.70
2019-02-23T17:11:09.062Z,158.03
2019-02-23T17:13:37.322Z,165.00
2019-02-23T17:16:06.085Z,157.80
2019-02-23T17:18:34.670Z,166.10
2019-02-23T17:21:02.999Z,165.47
2019-02-23T17:23:31.257Z,157.73
2019-02-23T17:26:04.366Z,159.17
2019-02-23T17:28:30.573Z,165.63
2019-02-23T17:30:58.904Z,166.43
2019-02-23T17:33:28.108Z,166.47
2019-02-23T17:35:56.907Z,170.40
2019-02-23T17:38:25.492Z,173.03
2019-02-23T17:40:54.155Z,168.80
2019-02-23T17:43:23.997Z,170.03
2019-02-23T17:45:52.507Z,177.00
2019-02-23T17:48:21.048Z,184.73
2019-02-23T17:50:50.745Z,179.27
2019-02-23T17:53:19.471Z,179.40
2019-02-23T17:55:47.770Z,189.87
2019-02-23T17:58:16.420Z,172.93
2019-02-23T18:00:45.077Z,188.20
2019-02-23T18:03:13.384Z,190.40
2019-02-23T18:05:41.649Z,191.93
2019-02-23T18:08:10.223Z,192.80
2019-02-23T18:10:38.919Z,188.27
2019-02-23T18:13:07.584Z,180.93
2019-02-23T18:15:36.139Z,189.40
2019-02-23T18:18:04.471Z,206.00
2019-02-23T18:20:33.137Z,187.70
2019-02-23T18:23:01.478Z,197.17
2019-02-23T18:25:30.165Z,184.20
2019-02-23T18:27:58.819Z,187.53
2019-02-23T18:30:27.524Z,180.57
2019-02-23T18:32:56.208Z,176.13
2019-02-23T18:35:24.483Z,184.90
2019-02-23T18:37:53.140Z,190.03
2019-02-23T18:40:21.518Z,191.47
2019-02-23T18:42:50.185Z,185.43
2019-02-23T18:45:18.438Z,193.47
2019-02-23T18:47:47.069Z,177.57
2019-02-23T18:50:15.710Z,185.13
2019-02-23T18:52:43.976Z,181.10
2019-02-23T18:55:14.247Z,199.17
2019-02-23T18:57:42.903Z,190.87
2019-02-23T19:00:11.919Z,191.17
2019-02-23T19:02:40.561Z,185.63
2019-02-23T19:05:12.822Z,188.43
2019-02-23T19:07:41.089Z,188.10
2019-02-23T19:10:11.981Z,191.37
2019-02-23T19:12:40.603Z,213.03
2019-02-23T19:15:11.913Z,211.37
2019-02-23T19:17:42.507Z,242.07
2019-02-23T19:20:13.331Z,205.03
2019-02-23T19:22:41.670Z,190.73
2019-02-23T19:25:12.473Z,170.70
2019-02-23T19:27:41.047Z,255.43
2019-02-23T19:30:12.171Z,195.00
2019-02-23T19:32:40.864Z,201.20
2019-02-23T19:35:09.506Z,204.57
2019-02-23T19:37:38.098Z,171.30
2019-02-23T19:40:09.102Z,175.40
2019-02-23T19:42:37.453Z,181.13
2019-02-23T19:45:08.899Z,184.77
2019-02-23T19:47:37.293Z,178.70
2019-02-23T19:50:09.126Z,181.57
2019-02-23T19:52:38.166Z,205.33
2019-02-23T19:55:09.699Z,225.00
2019-02-23T19:57:38.266Z,189.60
2019-02-23T20:00:09.118Z,207.23
2019-02-23T20:02:37.799Z,208.30
2019-02-23T20:05:08.601Z,204.73
2019-02-23T20:07:38.229Z,204.70
2019-02-23T20:10:10.624Z,191.10
2019-02-23T20:12:38.969Z,178.63
2019-02-23T20:15:11.099Z,222.27
2019-02-23T20:17:39.704Z,233.13
2019-02-23T20:20:08.249Z,224.80
2019-02-23T20:22:38.107Z,253.17
2019-02-23T20:25:08.859Z,237.77
2019-02-23T20:27:37.621Z,212.93
2019-02-23T20:30:14.368Z,271.17
2019-02-23T20:32:43.027Z,251.97
2019-02-23T20:35:11.751Z,263.20
2019-02-23T20:37:40.715Z,269.60
2019-02-23T20:40:11.427Z,240.17
2019-02-23T20:42:40.071Z,242.07
2019-02-23T20:45:09.472Z,253.20
2019-02-23T20:47:37.749Z,276.47
2019-02-23T20:50:07.472Z,284.77
2019-02-23T20:52:36.408Z,258.33
2019-02-23T20:55:06.845Z,218.93
2019-02-23T20:57:35.406Z,288.17
2019-02-23T21:00:04.504Z,267.23
2019-02-23T21:02:32.863Z,265.17
2019-02-23T21:05:01.218Z,253.53
2019-02-23T21:07:29.617Z,268.27
2019-02-23T21:09:58.258Z,250.07
2019-02-23T21:12:26.906Z,235.33
2019-02-23T21:14:55.231Z,277.87
2019-02-23T21:17:23.576Z,251.30
2019-02-23T21:19:52.212Z,236.80
2019-02-23T21:22:21.361Z,235.60
2019-02-23T21:24:49.623Z,221.70
2019-02-23T21:27:17.880Z,233.63
2019-02-23T21:29:46.572Z,247.93
2019-02-23T21:32:14.834Z,245.57
2019-02-23T21:34:43.174Z,238.07
2019-02-23T21:37:12.749Z,242.43
2019-02-23T21:39:41.013Z,248.87
2019-02-23T21:42:09.664Z,229.03
2019-02-23T21:44:38.035Z,225.97
2019-02-23T21:47:06.677Z,247.63
2019-02-23T21:49:35.349Z,239.33
2019-02-23T21:52:04.014Z,233.33
2019-02-23T21:54:32.622Z,247.20
2019-02-23T21:57:00.854Z,266.00
2019-02-23T21:59:29.920Z,256.40
2019-02-23T22:01:58.256Z,258.07
2019-02-23T22:04:26.827Z,276.90
2019-02-23T22:06:55.546Z,285.53
2019-02-23T22:09:23.804Z,256.23
2019-02-23T22:11:52.370Z,288.20
2019-02-23T22:14:20.976Z,342.47
2019-02-23T22:16:49.487Z,268.27
2019-02-23T22:19:18.128Z,232.03
2019-02-23T22:21:46.421Z,360.53
2019-02-23T22:24:14.983Z,274.70
2019-02-23T22:26:43.626Z,277.67
2019-02-23T22:29:12.237Z,274.30
2019-02-23T22:31:40.568Z,268.77
2019-02-23T22:34:09.140Z,288.00
2019-02-23T22:36:37.819Z,281.83
2019-02-23T22:39:07.679Z,244.03
2019-02-23T22:41:36.320Z,283.90
2019-02-23T22:44:04.702Z,271.40
2019-02-23T22:46:33.027Z,311.50
2019-02-23T22:49:01.301Z,299.43
2019-02-23T22:51:30.334Z,312.70
2019-02-23T22:53:58.594Z,264.97
2019-02-23T22:56:27.237Z,253.73
2019-02-23T22:58:55.907Z,253.13
2019-02-23T23:01:24.551Z,256.33
2019-02-23T23:03:53.061Z,281.27
2019-02-23T23:06:21.668Z,273.87
2019-02-23T23:08:50.250Z,282.37
2019-02-23T23:11:18.503Z,272.50
2019-02-23T23:13:47.111Z,282.57
2019-02-23T23:16:15.708Z,358.13
2019-02-23T23:18:43.966Z,250.03
2019-02-23T23:21:12.585Z,215.17
2019-02-23T23:23:41.172Z,221.40
2019-02-23T23:26:09.443Z,221.30
2019-02-23T23:28:38.083Z,264.87
2019-02-23T23:31:06.411Z,227.40
2019-02-23T23:33:35.071Z,202.70
2019-02-23T23:36:03.740Z,263.93
2019-02-23T23:38:32.395Z,226.90
2019-02-23T23:41:01.032Z,221.97
2019-02-23T23:43:29.736Z,211.47
2019-02-23T23:45:58.384Z,220.83
2019-02-23T23:48:28.735Z,275.17
2019-02-23T23:50:57.364Z,225.37
2019-02-23T23:53:26.002Z,228.03
2019-02-23T23:55:54.601Z,217.13
2019-02-23T23:58:23.297Z,220.13
